sensor_id;sensor_type;location;lat;lon;timestamp;pressure;altitude;pressure_sealevel;temperature;humidity
69784;BME280;57054;51.978;4.498;2023-08-06T00:00:22;100414.38;;;14.89;100.00
69784;BME280;57054;51.978;4.498;2023-08-06T00:02:47;100415.25;;;14.90;100.00
69784;BME280;57054;51.978;4.498;2023-08-06T00:05:13;100417.03;;;14.89;100.00
69784;BME280;57054;51.978;4.498;2023-08-06T00:07:39;100414.28;;;14.91;100.00
69784;BME280;57054;51.978;4.498;2023-08-06T00:10:04;100412.50;;;14.91;100.00
69784;BME280;57054;51.978;4.498;2023-08-06T00:12:30;100413.38;;;14.92;100.00
69784;BME280;57054;51.978;4.498;2023-08-06T00:14:55;100421.28;;;14.92;100.00
69784;BME280;57054;51.978;4.498;2023-08-06T00:17:20;100411.66;;;14.91;100.00
69784;BME280;57054;51.978;4.498;2023-08-06T00:19:47;100409.84;;;14.91;100.00
69784;BME280;57054;51.978;4.498;2023-08-06T00:22:12;100415.13;;;14.91;100.00
69784;BME280;57054;51.978;4.498;2023-08-06T00:24:38;100412.50;;;14.91;100.00
69784;BME280;57054;51.978;4.498;2023-08-06T00:27:03;100415.25;;;14.90;100.00
69784;BME280;57054;51.978;4.498;2023-08-06T00:29:29;100410.81;;;14.90;100.00
69784;BME280;57054;51.978;4.498;2023-08-06T00:31:54;100413.47;;;14.90;100.00
69784;BME280;57054;51.978;4.498;2023-08-06T00:34:20;100423.03;;;14.91;100.00
69784;BME280;57054;51.978;4.498;2023-08-06T00:36:45;100418.63;;;14.92;100.00
69784;BME280;57054;51.978;4.498;2023-08-06T00:39:11;100416.09;;;14.90;100.00
69784;BME280;57054;51.978;4.498;2023-08-06T00:41:36;100410.81;;;14.90;100.00
69784;BME280;57054;51.978;4.498;2023-08-06T00:44:01;100412.50;;;14.91;100.00
69784;BME280;57054;51.978;4.498;2023-08-06T00:46:27;100416.84;;;14.92;100.00
69784;BME280;57054;51.978;4.498;2023-08-06T00:48:52;100415.03;;;14.93;100.00
69784;BME280;57054;51.978;4.498;2023-08-06T00:51:18;100417.66;;;14.93;100.00
69784;BME280;57054;51.978;4.498;2023-08-06T00:53:44;100417.66;;;14.93;100.00
69784;BME280;57054;51.978;4.498;2023-08-06T00:56:10;100421.16;;;14.93;100.00
69784;BME280;57054;51.978;4.498;2023-08-06T00:58:36;100422.84;;;14.94;100.00
69784;BME280;57054;51.978;4.498;2023-08-06T01:04:23;100415.88;;;14.93;100.00
69784;BME280;57054;51.978;4.498;2023-08-06T01:15:28;100422.94;;;14.93;100.00
69784;BME280;57054;51.978;4.498;2023-08-06T01:17:54;100414.94;;;14.94;100.00
69784;BME280;57054;51.978;4.498;2023-08-06T01:20:20;100421.06;;;14.95;100.00
69784;BME280;57054;51.978;4.498;2023-08-06T01:22:45;100419.28;;;14.95;100.00
69784;BME280;57054;51.978;4.498;2023-08-06T01:25:14;100422.00;;;14.94;100.00
69784;BME280;57054;51.978;4.498;2023-08-06T01:27:48;100430.75;;;14.94;100.00
69784;BME280;57054;51.978;4.498;2023-08-06T01:30:21;100419.38;;;14.94;100.00
69784;BME280;57054;51.978;4.498;2023-08-06T01:32:50;100424.56;;;14.95;100.00
69784;BME280;57054;51.978;4.498;2023-08-06T01:35:19;100427.19;;;14.95;100.00
69784;BME280;57054;51.978;4.498;2023-08-06T01:37:45;100425.38;;;14.96;100.00
69784;BME280;57054;51.978;4.498;2023-08-06T01:40:13;100429.69;;;14.97;100.00
69784;BME280;57054;51.978;4.498;2023-08-06T01:42:38;100420.13;;;14.96;100.00
69784;BME280;57054;51.978;4.498;2023-08-06T01:45:08;100424.56;;;14.95;100.00
69784;BME280;57054;51.978;4.498;2023-08-06T01:47:34;100430.66;;;14.96;100.00
69784;BME280;57054;51.978;4.498;2023-08-06T01:50:00;100427.94;;;14.97;100.00
69784;BME280;57054;51.978;4.498;2023-08-06T01:52:26;100435.94;;;14.96;100.00
69784;BME280;57054;51.978;4.498;2023-08-06T01:54:52;100437.50;;;14.98;100.00
69784;BME280;57054;51.978;4.498;2023-08-06T01:57:17;100434.88;;;14.98;100.00
69784;BME280;57054;51.978;4.498;2023-08-06T01:59:43;100441.03;;;14.99;100.00
69784;BME280;57054;51.978;4.498;2023-08-06T02:02:09;100436.69;;;14.98;100.00
69784;BME280;57054;51.978;4.498;2023-08-06T02:04:34;100441.84;;;15.00;100.00
69784;BME280;57054;51.978;4.498;2023-08-06T02:07:00;100443.53;;;15.01;100.00
69784;BME280;57054;51.978;4.498;2023-08-06T02:09:25;100448.81;;;15.01;100.00
69784;BME280;57054;51.978;4.498;2023-08-06T02:11:51;100441.84;;;15.00;100.00
69784;BME280;57054;51.978;4.498;2023-08-06T02:14:16;100453.34;;;14.98;100.00
69784;BME280;57054;51.978;4.498;2023-08-06T02:16:42;100449.75;;;15.00;100.00
69784;BME280;57054;51.978;4.498;2023-08-06T02:19:07;100448.81;;;15.01;100.00
69784;BME280;57054;51.978;4.498;2023-08-06T02:21:33;100458.50;;;15.00;100.00
69784;BME280;57054;51.978;4.498;2023-08-06T02:23:58;100448.81;;;15.01;100.00
69784;BME280;57054;51.978;4.498;2023-08-06T02:26:23;100450.50;;;15.02;100.00
69784;BME280;57054;51.978;4.498;2023-08-06T02:28:49;100450.50;;;15.02;100.00
69784;BME280;57054;51.978;4.498;2023-08-06T02:31:14;100449.66;;;15.01;100.00
69784;BME280;57054;51.978;4.498;2023-08-06T02:33:40;100450.50;;;15.02;100.00
69784;BME280;57054;51.978;4.498;2023-08-06T02:36:05;100461.91;;;15.02;100.00
69784;BME280;57054;51.978;4.498;2023-08-06T02:38:31;100453.97;;;15.02;100.00
69784;BME280;57054;51.978;4.498;2023-08-06T02:40:57;100457.59;;;15.01;100.00
69784;BME280;57054;51.978;4.498;2023-08-06T02:43:22;100459.34;;;15.01;100.00
69784;BME280;57054;51.978;4.498;2023-08-06T02:45:48;100459.34;;;15.01;100.00
69784;BME280;57054;51.978;4.498;2023-08-06T02:48:13;100459.25;;;15.02;100.00
69784;BME280;57054;51.978;4.498;2023-08-06T02:50:39;100450.59;;;15.00;100.00
69784;BME280;57054;51.978;4.498;2023-08-06T02:53:06;100455.78;;;15.02;100.00
69784;BME280;57054;51.978;4.498;2023-08-06T02:55:32;100458.50;;;15.00;100.00
69784;BME280;57054;51.978;4.498;2023-08-06T02:57:57;100462.84;;;15.01;100.00
69784;BME280;57054;51.978;4.498;2023-08-06T03:00:23;100460.22;;;15.01;100.00
69784;BME280;57054;51.978;4.498;2023-08-06T03:02:48;100464.63;;;15.01;100.00
69784;BME280;57054;51.978;4.498;2023-08-06T03:05:13;100463.78;;;15.00;100.00
69784;BME280;57054;51.978;4.498;2023-08-06T03:07:39;100465.69;;;14.98;100.00
69784;BME280;57054;51.978;4.498;2023-08-06T03:10:04;100473.69;;;14.96;100.00
69784;BME280;57054;51.978;4.498;2023-08-06T03:12:30;100474.75;;;14.94;100.00
69784;BME280;57054;51.978;4.498;2023-08-06T03:14:55;100476.81;;;14.89;100.00
69784;BME280;57054;51.978;4.498;2023-08-06T03:17:21;100463.84;;;14.86;100.00
69784;BME280;57054;51.978;4.498;2023-08-06T03:19:46;100473.72;;;14.82;100.00
69784;BME280;57054;51.978;4.498;2023-08-06T03:22:11;100467.63;;;14.82;100.00
69784;BME280;57054;51.978;4.498;2023-08-06T03:24:37;100472.97;;;14.80;100.00
69784;BME280;57054;51.978;4.498;2023-08-06T03:27:02;100468.13;;;14.74;100.00
69784;BME280;57054;51.978;4.498;2023-08-06T03:29:28;100470.75;;;14.74;100.00
69784;BME280;57054;51.978;4.498;2023-08-06T03:31:53;100482.22;;;14.73;100.00
69784;BME280;57054;51.978;4.498;2023-08-06T03:34:18;100484.78;;;14.74;100.00
69784;BME280;57054;51.978;4.498;2023-08-06T03:36:44;100476.03;;;14.74;100.00
69784;BME280;57054;51.978;4.498;2023-08-06T03:39:09;100485.69;;;14.73;100.00
69784;BME280;57054;51.978;4.498;2023-08-06T03:41:35;100490.03;;;14.74;100.00
69784;BME280;57054;51.978;4.498;2023-08-06T03:44:00;100490.03;;;14.74;100.00
69784;BME280;57054;51.978;4.498;2023-08-06T03:46:28;100497.13;;;14.74;100.00
69784;BME280;57054;51.978;4.498;2023-08-06T03:48:53;100496.25;;;14.73;100.00
69784;BME280;57054;51.978;4.498;2023-08-06T03:51:18;100497.22;;;14.72;100.00
69784;BME280;57054;51.978;4.498;2023-08-06T03:53:44;100498.03;;;14.73;100.00
69784;BME280;57054;51.978;4.498;2023-08-06T03:56:09;100493.81;;;14.70;100.00
69784;BME280;57054;51.978;4.498;2023-08-06T03:58:35;100509.63;;;14.70;100.00
69784;BME280;57054;51.978;4.498;2023-08-06T04:01:01;100518.69;;;14.66;100.00
69784;BME280;57054;51.978;4.498;2023-08-06T04:03:27;100509.16;;;14.64;100.00
69784;BME280;57054;51.978;4.498;2023-08-06T04:05:54;100512.00;;;14.61;100.00
69784;BME280;57054;51.978;4.498;2023-08-06T04:08:20;100521.84;;;14.57;100.00
69784;BME280;57054;51.978;4.498;2023-08-06T04:10:45;100515.06;;;14.53;100.00
69784;BME280;57054;51.978;4.498;2023-08-06T04:13:10;100525.63;;;14.53;100.00
69784;BME280;57054;51.978;4.498;2023-08-06T04:15:36;100527.50;;;14.51;100.00
69784;BME280;57054;51.978;4.498;2023-08-06T04:18:01;100534.56;;;14.50;100.00
69784;BME280;57054;51.978;4.498;2023-08-06T04:20:26;100530.31;;;14.48;100.00
69784;BME280;57054;51.978;4.498;2023-08-06T04:22:54;100528.66;;;14.47;100.00
69784;BME280;57054;51.978;4.498;2023-08-06T04:25:20;100520.91;;;14.44;100.00
69784;BME280;57054;51.978;4.498;2023-08-06T04:27:47;100532.28;;;14.44;100.00
69784;BME280;57054;51.978;4.498;2023-08-06T04:30:12;100534.09;;;14.44;100.00
69784;BME280;57054;51.978;4.498;2023-08-06T04:32:39;100540.31;;;14.43;100.00
69784;BME280;57054;51.978;4.498;2023-08-06T04:35:04;100542.97;;;14.43;100.00
69784;BME280;57054;51.978;4.498;2023-08-06T04:37:30;100544.81;;;14.40;100.00
69784;BME280;57054;51.978;4.498;2023-08-06T04:39:55;100550.19;;;14.39;100.00
69784;BME280;57054;51.978;4.498;2023-08-06T04:42:21;100556.41;;;14.38;100.00
69784;BME280;57054;51.978;4.498;2023-08-06T04:44:46;100560.91;;;14.36;100.00
69784;BME280;57054;51.978;4.498;2023-08-06T04:47:11;100561.84;;;14.35;100.00
69784;BME280;57054;51.978;4.498;2023-08-06T04:49:37;100563.63;;;14.34;100.00
69784;BME280;57054;51.978;4.498;2023-08-06T04:52:02;100565.44;;;14.34;100.00
69784;BME280;57054;51.978;4.498;2023-08-06T04:54:28;100574.19;;;14.34;100.00
69784;BME280;57054;51.978;4.498;2023-08-06T04:56:53;100570.78;;;14.32;100.00
69784;BME280;57054;51.978;4.498;2023-08-06T04:59:19;100570.78;;;14.32;100.00
69784;BME280;57054;51.978;4.498;2023-08-06T05:01:44;100578.69;;;14.32;100.00
69784;BME280;57054;51.978;4.498;2023-08-06T05:04:09;100575.97;;;14.34;100.00
69784;BME280;57054;51.978;4.498;2023-08-06T05:06:35;100581.25;;;14.34;100.00
69784;BME280;57054;51.978;4.498;2023-08-06T05:09:00;100583.78;;;14.35;100.00
69784;BME280;57054;51.978;4.498;2023-08-06T05:11:25;100588.19;;;14.35;100.00
69784;BME280;57054;51.978;4.498;2023-08-06T05:13:51;100589.16;;;14.34;100.00
69784;BME280;57054;51.978;4.498;2023-08-06T05:16:16;100591.78;;;14.34;100.00
69784;BME280;57054;51.978;4.498;2023-08-06T05:18:42;100594.50;;;14.32;100.00
69784;BME280;57054;51.978;4.498;2023-08-06T05:21:07;100592.69;;;14.33;100.00
69784;BME280;57054;51.978;4.498;2023-08-06T05:23:32;100599.69;;;14.34;100.00
69784;BME280;57054;51.978;4.498;2023-08-06T05:25:58;100603.25;;;14.33;100.00
69784;BME280;57054;51.978;4.498;2023-08-06T05:28:23;100606.84;;;14.32;100.00
69784;BME280;57054;51.978;4.498;2023-08-06T05:30:48;100611.97;;;14.33;100.00
69784;BME280;57054;51.978;4.498;2023-08-06T05:33:14;100611.97;;;14.33;100.00
69784;BME280;57054;51.978;4.498;2023-08-06T05:35:41;100618.13;;;14.34;100.00
69784;BME280;57054;51.978;4.498;2023-08-06T05:38:06;100618.13;;;14.34;100.00
69784;BME280;57054;51.978;4.498;2023-08-06T05:40:35;100621.59;;;14.34;100.00
69784;BME280;57054;51.978;4.498;2023-08-06T05:43:01;100627.78;;;14.33;100.00
69784;BME280;57054;51.978;4.498;2023-08-06T05:45:26;100626.03;;;14.34;100.00
69784;BME280;57054;51.978;4.498;2023-08-06T05:47:51;100636.56;;;14.34;100.00
69784;BME280;57054;51.978;4.498;2023-08-06T05:50:19;100640.88;;;14.35;100.00
69784;BME280;57054;51.978;4.498;2023-08-06T05:52:44;100641.75;;;14.35;100.00
69784;BME280;57054;51.978;4.498;2023-08-06T05:55:10;100641.75;;;14.35;100.00
69784;BME280;57054;51.978;4.498;2023-08-06T05:57:35;100639.19;;;14.34;100.00
69784;BME280;57054;51.978;4.498;2023-08-06T06:00:01;100639.94;;;14.36;100.00
69784;BME280;57054;51.978;4.498;2023-08-06T06:02:27;100643.50;;;14.35;100.00
69784;BME280;57054;51.978;4.498;2023-08-06T06:04:52;100653.13;;;14.36;100.00
69784;BME280;57054;51.978;4.498;2023-08-06T06:07:18;100655.00;;;14.34;100.00
69784;BME280;57054;51.978;4.498;2023-08-06T06:09:43;100657.63;;;14.34;100.00
69784;BME280;57054;51.978;4.498;2023-08-06T06:12:10;100653.19;;;14.34;100.00
69784;BME280;57054;51.978;4.498;2023-08-06T06:14:35;100660.28;;;14.34;100.00
69784;BME280;57054;51.978;4.498;2023-08-06T06:17:00;100660.28;;;14.34;100.00
69784;BME280;57054;51.978;4.498;2023-08-06T06:19:26;100667.22;;;14.35;100.00
69784;BME280;57054;51.978;4.498;2023-08-06T06:21:52;100663.75;;;14.34;100.00
69784;BME280;57054;51.978;4.498;2023-08-06T06:24:18;100661.94;;;14.35;100.00
69784;BME280;57054;51.978;4.498;2023-08-06T06:26:43;100665.44;;;14.35;100.00
69784;BME280;57054;51.978;4.498;2023-08-06T06:29:09;100675.03;;;14.36;100.00
69784;BME280;57054;51.978;4.498;2023-08-06T06:31:34;100674.19;;;14.36;100.00
69784;BME280;57054;51.978;4.498;2023-08-06T06:34:00;100676.75;;;14.37;100.00
69784;BME280;57054;51.978;4.498;2023-08-06T06:36:26;100676.75;;;14.37;100.00
69784;BME280;57054;51.978;4.498;2023-08-06T06:38:51;100686.31;;;14.38;100.00
69784;BME280;57054;51.978;4.498;2023-08-06T06:41:16;100679.38;;;14.37;100.00
69784;BME280;57054;51.978;4.498;2023-08-06T06:43:42;100679.38;;;14.37;100.00
69784;BME280;57054;51.978;4.498;2023-08-06T06:46:07;100676.66;;;14.39;100.00
69784;BME280;57054;51.978;4.498;2023-08-06T06:48:33;100686.25;;;14.40;100.00
69784;BME280;57054;51.978;4.498;2023-08-06T06:50:59;100692.34;;;14.40;100.00
69784;BME280;57054;51.978;4.498;2023-08-06T06:53:25;100692.34;;;14.40;100.00
69784;BME280;57054;51.978;4.498;2023-08-06T06:55:53;100690.66;;;14.39;100.00
69784;BME280;57054;51.978;4.498;2023-08-06T06:58:19;100697.63;;;14.40;100.00
69784;BME280;57054;51.978;4.498;2023-08-06T07:00:45;100706.38;;;14.41;100.00
69784;BME280;57054;51.978;4.498;2023-08-06T07:03:11;100705.53;;;14.40;100.00
69784;BME280;57054;51.978;4.498;2023-08-06T07:05:36;100701.97;;;14.42;100.00
69784;BME280;57054;51.978;4.498;2023-08-06T07:08:02;100705.53;;;14.40;100.00
69784;BME280;57054;51.978;4.498;2023-08-06T07:10:27;100709.88;;;14.42;100.00
69784;BME280;57054;51.978;4.498;2023-08-06T07:12:52;100706.31;;;14.43;100.00
69784;BME280;57054;51.978;4.498;2023-08-06T07:15:18;100709.78;;;14.43;100.00
69784;BME280;57054;51.978;4.498;2023-08-06T07:17:43;100708.81;;;14.44;100.00
69784;BME280;57054;51.978;4.498;2023-08-06T07:20:09;100714.00;;;14.46;100.00
69784;BME280;57054;51.978;4.498;2023-08-06T07:22:35;100723.63;;;14.47;100.00
69784;BME280;57054;51.978;4.498;2023-08-06T07:25:01;100716.47;;;14.49;100.00
69784;BME280;57054;51.978;4.498;2023-08-06T07:27:26;100720.91;;;14.48;100.00
69784;BME280;57054;51.978;4.498;2023-08-06T07:29:52;100721.66;;;14.50;100.00
69784;BME280;57054;51.978;4.498;2023-08-06T07:32:18;100723.44;;;14.50;100.00
69784;BME280;57054;51.978;4.498;2023-08-06T07:34:43;100719.03;;;14.50;100.00
69784;BME280;57054;51.978;4.498;2023-08-06T07:37:08;100721.75;;;14.49;100.00
69784;BME280;57054;51.978;4.498;2023-08-06T07:39:34;100728.59;;;14.51;100.00
69784;BME280;57054;51.978;4.498;2023-08-06T07:41:59;100726.84;;;14.52;100.00
69784;BME280;57054;51.978;4.498;2023-08-06T07:44:25;100729.34;;;14.53;100.00
69784;BME280;57054;51.978;4.498;2023-08-06T07:46:50;100732.94;;;14.52;100.00
69784;BME280;57054;51.978;4.498;2023-08-06T07:49:15;100733.78;;;14.53;100.00
69784;BME280;57054;51.978;4.498;2023-08-06T07:51:41;100728.50;;;14.53;100.00
69784;BME280;57054;51.978;4.498;2023-08-06T07:54:06;100728.50;;;14.53;100.00
69784;BME280;57054;51.978;4.498;2023-08-06T07:56:32;100729.34;;;14.53;100.00
69784;BME280;57054;51.978;4.498;2023-08-06T07:58:57;100726.72;;;14.53;100.00
69784;BME280;57054;51.978;4.498;2023-08-06T08:01:23;100728.44;;;14.54;100.00
69784;BME280;57054;51.978;4.498;2023-08-06T08:03:48;100724.09;;;14.53;100.00
69784;BME280;57054;51.978;4.498;2023-08-06T08:06:13;100732.94;;;14.52;100.00
69784;BME280;57054;51.978;4.498;2023-08-06T08:08:39;100731.16;;;14.53;100.00
69784;BME280;57054;51.978;4.498;2023-08-06T08:11:05;100736.34;;;14.54;100.00
69784;BME280;57054;51.978;4.498;2023-08-06T08:13:30;100743.31;;;14.55;100.00
69784;BME280;57054;51.978;4.498;2023-08-06T08:15:58;100738.03;;;14.55;100.00
69784;BME280;57054;51.978;4.498;2023-08-06T08:18:23;100740.69;;;14.55;100.00
69784;BME280;57054;51.978;4.498;2023-08-06T08:20:49;100742.34;;;14.56;100.00
69784;BME280;57054;51.978;4.498;2023-08-06T08:23:14;100741.47;;;14.57;100.00
69784;BME280;57054;51.978;4.498;2023-08-06T08:25:39;100742.34;;;14.56;100.00
69784;BME280;57054;51.978;4.498;2023-08-06T08:28:05;100739.72;;;14.56;100.00
69784;BME280;57054;51.978;4.498;2023-08-06T08:30:30;100751.06;;;14.58;100.00
69784;BME280;57054;51.978;4.498;2023-08-06T08:32:56;100744.84;;;14.59;100.00
69784;BME280;57054;51.978;4.498;2023-08-06T08:35:21;100744.03;;;14.59;100.00
69784;BME280;57054;51.978;4.498;2023-08-06T08:37:47;100753.59;;;14.60;100.00
69784;BME280;57054;51.978;4.498;2023-08-06T08:40:14;100748.34;;;14.60;100.00
69784;BME280;57054;51.978;4.498;2023-08-06T08:42:39;100764.91;;;14.62;100.00
69784;BME280;57054;51.978;4.498;2023-08-06T08:45:11;100759.63;;;14.62;100.00
69784;BME280;57054;51.978;4.498;2023-08-06T08:47:38;100760.50;;;14.63;100.00
69784;BME280;57054;51.978;4.498;2023-08-06T08:50:05;100756.06;;;14.63;100.00
69784;BME280;57054;51.978;4.498;2023-08-06T08:52:31;100767.44;;;14.64;100.00
69784;BME280;57054;51.978;4.498;2023-08-06T08:55:01;100759.47;;;14.65;100.00
69784;BME280;57054;51.978;4.498;2023-08-06T08:57:26;100765.56;;;14.66;100.00
69784;BME280;57054;51.978;4.498;2023-08-06T08:59:52;100763.81;;;14.66;100.00
69784;BME280;57054;51.978;4.498;2023-08-06T09:02:18;100764.66;;;14.67;100.00
69784;BME280;57054;51.978;4.498;2023-08-06T09:04:45;100769.06;;;14.66;100.00
69784;BME280;57054;51.978;4.498;2023-08-06T09:07:16;100768.03;;;14.69;100.00
69784;BME280;57054;51.978;4.498;2023-08-06T09:09:43;100775.84;;;14.70;100.00
69784;BME280;57054;51.978;4.498;2023-08-06T09:12:15;100777.38;;;14.74;100.00
69784;BME280;57054;51.978;4.498;2023-08-06T09:14:41;100775.41;;;14.78;100.00
69784;BME280;57054;51.978;4.498;2023-08-06T09:17:07;100786.59;;;14.82;100.00
69784;BME280;57054;51.978;4.498;2023-08-06T09:19:34;100788.13;;;14.86;100.00
69784;BME280;57054;51.978;4.498;2023-08-06T09:21:59;100783.59;;;14.88;100.00
69784;BME280;57054;51.978;4.498;2023-08-06T09:24:25;100778.97;;;14.91;100.00
69784;BME280;57054;51.978;4.498;2023-08-06T09:26:52;100783.16;;;14.95;100.00
69784;BME280;57054;51.978;4.498;2023-08-06T09:29:17;100788.31;;;14.97;100.00
69784;BME280;57054;51.978;4.498;2023-08-06T09:31:47;100787.38;;;14.98;100.00
69784;BME280;57054;51.978;4.498;2023-08-06T09:34:17;100787.38;;;14.98;100.00
69784;BME280;57054;51.978;4.498;2023-08-06T09:36:47;100789.84;;;15.01;99.92
69784;BME280;57054;51.978;4.498;2023-08-06T09:39:14;100799.44;;;15.02;100.00
69784;BME280;57054;51.978;4.498;2023-08-06T09:41:41;100806.34;;;15.05;100.00
69784;BME280;57054;51.978;4.498;2023-08-06T09:44:18;100805.28;;;15.07;100.00
69784;BME280;57054;51.978;4.498;2023-08-06T09:46:51;100811.41;;;15.08;100.00
69784;BME280;57054;51.978;4.498;2023-08-06T09:49:25;100803.31;;;15.11;100.00
69784;BME280;57054;51.978;4.498;2023-08-06T09:51:51;100820.84;;;15.12;99.96
69784;BME280;57054;51.978;4.498;2023-08-06T09:54:19;100814.72;;;15.11;98.32
69784;BME280;57054;51.978;4.498;2023-08-06T09:56:44;100814.53;;;15.14;98.62
69784;BME280;57054;51.978;4.498;2023-08-06T09:59:10;100825.84;;;15.16;99.43
69784;BME280;57054;51.978;4.498;2023-08-06T10:01:36;100825.75;;;15.18;99.57
69784;BME280;57054;51.978;4.498;2023-08-06T10:04:06;100827.56;;;15.18;99.49
69784;BME280;57054;51.978;4.498;2023-08-06T10:06:40;100836.41;;;15.16;96.94
69784;BME280;57054;51.978;4.498;2023-08-06T10:09:08;100836.31;;;15.18;96.86
69784;BME280;57054;51.978;4.498;2023-08-06T10:11:36;100838.84;;;15.20;97.50
69784;BME280;57054;51.978;4.498;2023-08-06T10:16:43;100850.16;;;15.22;97.31
69784;BME280;57054;51.978;4.498;2023-08-06T10:19:16;100846.59;;;15.23;97.33
69784;BME280;57054;51.978;4.498;2023-08-06T10:22:11;100849.13;;;15.24;96.99
69784;BME280;57054;51.978;4.498;2023-08-06T10:24:53;100848.19;;;15.25;97.86
69784;BME280;57054;51.978;4.498;2023-08-06T10:27:40;100844.63;;;15.26;97.39
69784;BME280;57054;51.978;4.498;2023-08-06T10:30:31;100850.75;;;15.27;97.31
69784;BME280;57054;51.978;4.498;2023-08-06T10:33:02;100849.78;;;15.28;97.52
69784;BME280;57054;51.978;4.498;2023-08-06T10:35:35;100852.34;;;15.29;97.87
69784;BME280;57054;51.978;4.498;2023-08-06T10:38:04;100846.03;;;15.32;98.45
69784;BME280;57054;51.978;4.498;2023-08-06T10:40:31;100852.06;;;15.34;98.08
69784;BME280;57054;51.978;4.498;2023-08-06T10:43:04;100842.25;;;15.36;97.68
69784;BME280;57054;51.978;4.498;2023-08-06T10:45:34;100839.53;;;15.38;97.95
69784;BME280;57054;51.978;4.498;2023-08-06T10:48:00;100844.72;;;15.39;98.19
69784;BME280;57054;51.978;4.498;2023-08-06T10:50:26;100852.53;;;15.41;98.68
69784;BME280;57054;51.978;4.498;2023-08-06T10:52:52;100854.16;;;15.43;99.21
69784;BME280;57054;51.978;4.498;2023-08-06T10:55:24;100852.16;;;15.47;99.51
69784;BME280;57054;51.978;4.498;2023-08-06T10:57:50;100849.34;;;15.50;99.80
69784;BME280;57054;51.978;4.498;2023-08-06T11:00:15;100849.16;;;15.53;99.73
69784;BME280;57054;51.978;4.498;2023-08-06T11:02:41;100862.25;;;15.54;98.59
69784;BME280;57054;51.978;4.498;2023-08-06T11:12:10;100861.69;;;15.64;97.61
69784;BME280;57054;51.978;4.498;2023-08-06T11:14:36;100872.16;;;15.65;97.08
69784;BME280;57054;51.978;4.498;2023-08-06T11:17:01;100875.53;;;15.67;96.70
69784;BME280;57054;51.978;4.498;2023-08-06T11:19:27;100865.00;;;15.67;96.59
69784;BME280;57054;51.978;4.498;2023-08-06T11:21:52;100864.91;;;15.69;96.22
69784;BME280;57054;51.978;4.498;2023-08-06T11:24:17;100863.09;;;15.69;96.37
69784;BME280;57054;51.978;4.498;2023-08-06T11:26:43;100861.31;;;15.70;95.49
69784;BME280;57054;51.978;4.498;2023-08-06T11:29:10;100857.81;;;15.69;95.35
69784;BME280;57054;51.978;4.498;2023-08-06T11:31:36;100872.72;;;15.70;95.21
69784;BME280;57054;51.978;4.498;2023-08-06T11:34:02;100866.47;;;15.71;95.15
69784;BME280;57054;51.978;4.498;2023-08-06T11:36:36;100870.19;;;15.69;91.88
69784;BME280;57054;51.978;4.498;2023-08-06T11:39:04;100878.94;;;15.69;92.55
69784;BME280;57054;51.978;4.498;2023-08-06T11:41:31;100883.28;;;15.70;93.16
69784;BME280;57054;51.978;4.498;2023-08-06T11:44:00;100884.13;;;15.71;94.27
69784;BME280;57054;51.978;4.498;2023-08-06T11:46:25;100885.94;;;15.70;95.23
69784;BME280;57054;51.978;4.498;2023-08-06T11:48:58;100880.66;;;15.70;95.94
69784;BME280;57054;51.978;4.498;2023-08-06T11:51:25;100881.56;;;15.69;96.50
69784;BME280;57054;51.978;4.498;2023-08-06T11:53:59;100875.38;;;15.70;96.75
69784;BME280;57054;51.978;4.498;2023-08-06T11:56:25;100883.19;;;15.72;97.62
69784;BME280;57054;51.978;4.498;2023-08-06T11:58:52;100884.88;;;15.73;97.50
69784;BME280;57054;51.978;4.498;2023-08-06T12:01:18;100890.09;;;15.74;96.30
69784;BME280;57054;51.978;4.498;2023-08-06T12:03:43;100885.75;;;15.73;94.67
69784;BME280;57054;51.978;4.498;2023-08-06T12:06:08;100885.75;;;15.73;93.38
69784;BME280;57054;51.978;4.498;2023-08-06T12:08:34;100878.59;;;15.76;93.85
69784;BME280;57054;51.978;4.498;2023-08-06T12:10:59;100888.13;;;15.78;94.05
69784;BME280;57054;51.978;4.498;2023-08-06T12:13:25;100886.97;;;15.82;94.03
69784;BME280;57054;51.978;4.498;2023-08-06T12:15:50;100884.25;;;15.84;93.44
69784;BME280;57054;51.978;4.498;2023-08-06T12:18:18;100890.28;;;15.86;92.75
69784;BME280;57054;51.978;4.498;2023-08-06T12:20:44;100898.94;;;15.88;93.60
69784;BME280;57054;51.978;4.498;2023-08-06T12:23:09;100904.16;;;15.89;93.74
69784;BME280;57054;51.978;4.498;2023-08-06T12:25:35;100897.09;;;15.90;93.61
69784;BME280;57054;51.978;4.498;2023-08-06T12:28:00;100907.53;;;15.91;94.00
69784;BME280;57054;51.978;4.498;2023-08-06T12:30:26;100908.50;;;15.90;93.74
69784;BME280;57054;51.978;4.498;2023-08-06T12:32:52;100904.16;;;15.89;92.71
69784;BME280;57054;51.978;4.498;2023-08-06T12:35:17;100908.59;;;15.89;92.28
69784;BME280;57054;51.978;4.498;2023-08-06T12:37:43;100913.88;;;15.89;92.64
69784;BME280;57054;51.978;4.498;2023-08-06T12:40:09;100920.84;;;15.90;92.92
69784;BME280;57054;51.978;4.498;2023-08-06T12:42:35;100918.09;;;15.91;93.00
69784;BME280;57054;51.978;4.498;2023-08-06T12:45:01;100921.59;;;15.92;92.97
69784;BME280;57054;51.978;4.498;2023-08-06T12:47:26;100929.53;;;15.92;93.23
69784;BME280;57054;51.978;4.498;2023-08-06T12:49:51;100921.59;;;15.92;92.55
69784;BME280;57054;51.978;4.498;2023-08-06T12:52:17;100926.97;;;15.90;92.39
69784;BME280;57054;51.978;4.498;2023-08-06T12:54:44;100934.81;;;15.92;92.57
69784;BME280;57054;51.978;4.498;2023-08-06T12:57:11;100939.13;;;15.93;91.63
69784;BME280;57054;51.978;4.498;2023-08-06T12:59:37;100932.09;;;15.93;92.25